sensor_id;sensor_type;location;lat;lon;timestamp;pressure;altitude;pressure_sealevel;temperature;humidity
12963;BME280;6546;49.882;8.666;2023-03-15T00:01:20;99716.97;;;6.22;69.42
12963;BME280;6546;49.882;8.666;2023-03-15T00:03:48;99724.44;;;6.16;68.82
12963;BME280;6546;49.882;8.666;2023-03-15T00:06:15;99723.63;;;6.15;69.00
12963;BME280;6546;49.882;8.666;2023-03-15T00:08:42;99722.00;;;6.14;69.33
12963;BME280;6546;49.882;8.666;2023-03-15T00:11:11;99729.19;;;6.11;69.50
12963;BME280;6546;49.882;8.666;2023-03-15T00:13:38;99723.94;;;6.03;69.65
12963;BME280;6546;49.882;8.666;2023-03-15T00:16:06;99735.56;;;6.07;69.03
12963;BME280;6546;49.882;8.666;2023-03-15T00:18:33;99741.53;;;6.07;69.59
12963;BME280;6546;49.882;8.666;2023-03-15T00:21:00;99747.88;;;6.03;70.00
12963;BME280;6546;49.882;8.666;2023-03-15T00:23:27;99754.91;;;6.01;69.60
12963;BME280;6546;49.882;8.666;2023-03-15T00:25:55;99757.09;;;5.96;70.18
12963;BME280;6546;49.882;8.666;2023-03-15T00:28:22;99759.38;;;5.99;69.37
12963;BME280;6546;49.882;8.666;2023-03-15T00:30:49;99758.72;;;5.97;69.49
12963;BME280;6546;49.882;8.666;2023-03-15T00:33:17;99764.81;;;5.96;69.14
12963;BME280;6546;49.882;8.666;2023-03-15T00:35:44;99772.81;;;5.93;69.35
12963;BME280;6546;49.882;8.666;2023-03-15T00:38:11;99771.72;;;5.86;69.15
12963;BME280;6546;49.882;8.666;2023-03-15T00:40:38;99777.78;;;5.85;68.58
12963;BME280;6546;49.882;8.666;2023-03-15T00:43:04;99786.06;;;5.89;68.28
12963;BME280;6546;49.882;8.666;2023-03-15T00:45:31;99793.47;;;5.82;69.22
12963;BME280;6546;49.882;8.666;2023-03-15T00:47:58;99785.38;;;5.77;68.45
12963;BME280;6546;49.882;8.666;2023-03-15T00:50:26;99785.66;;;5.74;68.42
12963;BME280;6546;49.882;8.666;2023-03-15T00:52:52;99779.06;;;5.71;68.52
12963;BME280;6546;49.882;8.666;2023-03-15T00:55:19;99787.00;;;5.78;68.79
12963;BME280;6546;49.882;8.666;2023-03-15T00:57:46;99791.88;;;5.71;68.81
12963;BME280;6546;49.882;8.666;2023-03-15T01:00:15;99790.66;;;5.75;67.61
12963;BME280;6546;49.882;8.666;2023-03-15T01:02:44;99790.53;;;5.67;68.12
12963;BME280;6546;49.882;8.666;2023-03-15T01:05:11;99793.41;;;5.55;68.72
12963;BME280;6546;49.882;8.666;2023-03-15T01:07:39;99795.44;;;5.42;68.90
12963;BME280;6546;49.882;8.666;2023-03-15T01:10:06;99801.22;;;5.44;68.12
12963;BME280;6546;49.882;8.666;2023-03-15T01:12:33;99801.38;;;5.52;68.25
12963;BME280;6546;49.882;8.666;2023-03-15T01:15:00;99808.81;;;5.55;67.96
12963;BME280;6546;49.882;8.666;2023-03-15T01:17:27;99818.66;;;5.50;68.60
12963;BME280;6546;49.882;8.666;2023-03-15T01:19:54;99820.16;;;5.43;68.28
12963;BME280;6546;49.882;8.666;2023-03-15T01:22:21;99832.03;;;5.44;68.37
12963;BME280;6546;49.882;8.666;2023-03-15T01:24:49;99829.75;;;5.41;68.74
12963;BME280;6546;49.882;8.666;2023-03-15T01:27:15;99828.25;;;5.38;67.55
12963;BME280;6546;49.882;8.666;2023-03-15T01:29:42;99823.66;;;5.32;68.38
12963;BME280;6546;49.882;8.666;2023-03-15T01:32:08;99827.72;;;5.25;68.33
12963;BME280;6546;49.882;8.666;2023-03-15T01:34:35;99832.19;;;5.23;67.96
12963;BME280;6546;49.882;8.666;2023-03-15T01:37:02;99837.03;;;5.16;68.73
12963;BME280;6546;49.882;8.666;2023-03-15T01:39:28;99838.50;;;5.19;67.81
12963;BME280;6546;49.882;8.666;2023-03-15T01:41:57;99834.72;;;5.04;69.08
12963;BME280;6546;49.882;8.666;2023-03-15T01:44:44;99832.94;;;5.04;69.08
12963;BME280;6546;49.882;8.666;2023-03-15T01:47:14;99830.38;;;5.04;68.92
12963;BME280;6546;49.882;8.666;2023-03-15T01:49:42;99822.81;;;5.03;68.99
12963;BME280;6546;49.882;8.666;2023-03-15T01:52:12;99828.88;;;5.02;68.90
12963;BME280;6546;49.882;8.666;2023-03-15T01:54:43;99837.13;;;5.05;69.03
12963;BME280;6546;49.882;8.666;2023-03-15T01:57:15;99849.97;;;5.05;68.69
12963;BME280;6546;49.882;8.666;2023-03-15T01:59:45;99849.28;;;5.03;68.69
12963;BME280;6546;49.882;8.666;2023-03-15T02:02:15;99854.13;;;4.97;68.79
12963;BME280;6546;49.882;8.666;2023-03-15T02:04:45;99854.41;;;4.94;69.13
12963;BME280;6546;49.882;8.666;2023-03-15T02:07:16;99853.84;;;4.90;69.24
12963;BME280;6546;49.882;8.666;2023-03-15T02:09:49;99864.41;;;4.97;68.67
12963;BME280;6546;49.882;8.666;2023-03-15T02:12:17;99861.81;;;4.87;69.08
12963;BME280;6546;49.882;8.666;2023-03-15T02:14:45;99868.94;;;4.84;69.40
12963;BME280;6546;49.882;8.666;2023-03-15T02:17:12;99865.97;;;4.88;69.61
12963;BME280;6546;49.882;8.666;2023-03-15T02:19:47;99866.75;;;4.79;70.36
12963;BME280;6546;49.882;8.666;2023-03-15T02:22:24;99861.63;;;4.79;70.40
12963;BME280;6546;49.882;8.666;2023-03-15T02:24:58;99859.34;;;4.76;70.13
12963;BME280;6546;49.882;8.666;2023-03-15T02:27:32;99857.59;;;4.76;69.65
12963;BME280;6546;49.882;8.666;2023-03-15T02:30:00;99851.50;;;4.68;70.01
12963;BME280;6546;49.882;8.666;2023-03-15T02:32:28;99856.38;;;4.71;70.59
12963;BME280;6546;49.882;8.666;2023-03-15T02:34:55;99851.22;;;4.71;69.89
12963;BME280;6546;49.882;8.666;2023-03-15T02:37:21;99858.38;;;4.67;69.81
12963;BME280;6546;49.882;8.666;2023-03-15T02:39:48;99860.75;;;4.59;70.54
12963;BME280;6546;49.882;8.666;2023-03-15T02:42:15;99865.06;;;4.59;70.36
12963;BME280;6546;49.882;8.666;2023-03-15T02:44:47;99872.94;;;4.67;70.73
12963;BME280;6546;49.882;8.666;2023-03-15T02:47:17;99873.06;;;4.65;70.15
12963;BME280;6546;49.882;8.666;2023-03-15T02:49:48;99877.50;;;4.63;69.40
12963;BME280;6546;49.882;8.666;2023-03-15T02:52:15;99878.31;;;4.64;70.10
12963;BME280;6546;49.882;8.666;2023-03-15T02:54:42;99878.19;;;4.65;70.38
12963;BME280;6546;49.882;8.666;2023-03-15T02:57:09;99870.44;;;4.56;70.46
12963;BME280;6546;49.882;8.666;2023-03-15T02:59:35;99876.13;;;4.59;69.91
12963;BME280;6546;49.882;8.666;2023-03-15T03:02:04;99877.50;;;4.63;69.40
12963;BME280;6546;49.882;8.666;2023-03-15T03:04:30;99876.41;;;4.56;70.43
12963;BME280;6546;49.882;8.666;2023-03-15T03:06:57;99886.28;;;4.61;70.29
12963;BME280;6546;49.882;8.666;2023-03-15T03:09:23;99886.53;;;4.58;69.97
12963;BME280;6546;49.882;8.666;2023-03-15T03:11:50;99895.16;;;4.57;69.99
12963;BME280;6546;49.882;8.666;2023-03-15T03:14:17;99902.59;;;4.60;69.80
12963;BME280;6546;49.882;8.666;2023-03-15T03:16:43;99899.88;;;4.52;70.03
12963;BME280;6546;49.882;8.666;2023-03-15T03:19:11;99911.97;;;4.50;70.31
12963;BME280;6546;49.882;8.666;2023-03-15T03:21:38;99911.06;;;4.51;71.08
12963;BME280;6546;49.882;8.666;2023-03-15T03:24:07;99916.19;;;4.51;70.36
12963;BME280;6546;49.882;8.666;2023-03-15T03:26:34;99917.38;;;4.47;69.83
12963;BME280;6546;49.882;8.666;2023-03-15T03:29:02;99927.44;;;4.39;70.49
12963;BME280;6546;49.882;8.666;2023-03-15T03:31:30;99925.97;;;4.36;70.20
12963;BME280;6546;49.882;8.666;2023-03-15T03:33:58;99924.44;;;4.34;70.55
12963;BME280;6546;49.882;8.666;2023-03-15T03:36:26;99934.00;;;4.32;70.68
12963;BME280;6546;49.882;8.666;2023-03-15T03:38:53;99928.22;;;4.30;70.55
12963;BME280;6546;49.882;8.666;2023-03-15T03:41:21;99927.50;;;4.28;70.29
12963;BME280;6546;49.882;8.666;2023-03-15T03:43:48;99932.63;;;4.28;70.98
12963;BME280;6546;49.882;8.666;2023-03-15T03:46:14;99941.03;;;4.30;70.64
12963;BME280;6546;49.882;8.666;2023-03-15T03:48:41;99945.00;;;4.22;71.17
12963;BME280;6546;49.882;8.666;2023-03-15T03:51:08;99935.69;;;4.21;71.04
12963;BME280;6546;49.882;8.666;2023-03-15T03:53:36;99942.56;;;4.21;71.37
12963;BME280;6546;49.882;8.666;2023-03-15T03:56:04;99941.63;;;4.22;71.37
12963;BME280;6546;49.882;8.666;2023-03-15T03:58:30;99949.88;;;4.26;71.34
12963;BME280;6546;49.882;8.666;2023-03-15T04:00:57;99950.56;;;4.28;70.64
12963;BME280;6546;49.882;8.666;2023-03-15T04:03:23;99952.31;;;4.27;70.06
12963;BME280;6546;49.882;8.666;2023-03-15T04:05:52;99962.81;;;4.24;70.83
12963;BME280;6546;49.882;8.666;2023-03-15T04:08:19;99963.63;;;4.24;70.19
12963;BME280;6546;49.882;8.666;2023-03-15T04:10:50;99953.28;;;4.26;69.36
12963;BME280;6546;49.882;8.666;2023-03-15T04:13:17;99956.19;;;4.21;69.18
12963;BME280;6546;49.882;8.666;2023-03-15T04:15:44;99952.50;;;4.14;69.48
12963;BME280;6546;49.882;8.666;2023-03-15T04:18:11;99955.78;;;4.16;69.64
12963;BME280;6546;49.882;8.666;2023-03-15T04:20:37;99953.84;;;3.98;70.34
12963;BME280;6546;49.882;8.666;2023-03-15T04:23:11;99955.81;;;4.05;70.60
12963;BME280;6546;49.882;8.666;2023-03-15T04:25:37;99962.06;;;4.12;69.76
12963;BME280;6546;49.882;8.666;2023-03-15T04:28:05;99972.81;;;4.06;69.83
12963;BME280;6546;49.882;8.666;2023-03-15T04:30:35;99968.19;;;4.00;69.57
12963;BME280;6546;49.882;8.666;2023-03-15T04:33:03;99975.16;;;3.98;70.23
12963;BME280;6546;49.882;8.666;2023-03-15T04:35:31;99970.19;;;3.97;70.62
12963;BME280;6546;49.882;8.666;2023-03-15T04:37:59;99966.19;;;4.04;70.50
12963;BME280;6546;49.882;8.666;2023-03-15T04:40:26;99975.03;;;4.00;70.22
12963;BME280;6546;49.882;8.666;2023-03-15T04:42:53;99979.47;;;3.98;70.89
12963;BME280;6546;49.882;8.666;2023-03-15T04:45:23;99981.25;;;3.97;70.89
12963;BME280;6546;49.882;8.666;2023-03-15T04:47:50;99974.47;;;3.96;70.28
12963;BME280;6546;49.882;8.666;2023-03-15T04:50:18;99976.13;;;3.97;70.64
12963;BME280;6546;49.882;8.666;2023-03-15T04:52:45;99978.69;;;3.97;70.31
12963;BME280;6546;49.882;8.666;2023-03-15T04:55:12;99982.28;;;3.95;70.59
12963;BME280;6546;49.882;8.666;2023-03-15T04:57:38;99982.59;;;4.01;70.34
12963;BME280;6546;49.882;8.666;2023-03-15T05:00:07;99984.72;;;3.96;70.21
12963;BME280;6546;49.882;8.666;2023-03-15T05:02:38;99989.75;;;3.87;71.62
12963;BME280;6546;49.882;8.666;2023-03-15T05:05:06;99973.56;;;3.86;71.06
12963;BME280;6546;49.882;8.666;2023-03-15T05:07:34;99973.34;;;3.89;71.12
12963;BME280;6546;49.882;8.666;2023-03-15T05:10:02;99978.22;;;3.92;69.98
12963;BME280;6546;49.882;8.666;2023-03-15T05:12:29;99983.81;;;3.86;71.00
12963;BME280;6546;49.882;8.666;2023-03-15T05:14:56;99981.94;;;3.88;70.42
12963;BME280;6546;49.882;8.666;2023-03-15T05:17:23;99985.22;;;3.90;70.77
12963;BME280;6546;49.882;8.666;2023-03-15T05:19:51;99975.78;;;3.91;71.02
12963;BME280;6546;49.882;8.666;2023-03-15T05:22:18;99974.84;;;3.92;70.83
12963;BME280;6546;49.882;8.666;2023-03-15T05:24:50;99976.31;;;3.94;70.70
12963;BME280;6546;49.882;8.666;2023-03-15T05:27:16;99986.91;;;4.01;71.68
12963;BME280;6546;49.882;8.666;2023-03-15T05:29:44;99983.97;;;4.05;70.44
12963;BME280;6546;49.882;8.666;2023-03-15T05:32:11;99995.38;;;4.12;69.85
12963;BME280;6546;49.882;8.666;2023-03-15T05:34:37;99985.63;;;4.06;69.51
12963;BME280;6546;49.882;8.666;2023-03-15T05:37:05;99990.50;;;4.09;70.56
12963;BME280;6546;49.882;8.666;2023-03-15T05:39:32;99986.63;;;4.15;69.14
12963;BME280;6546;49.882;8.666;2023-03-15T05:41:59;99987.53;;;4.14;69.40
12963;BME280;6546;49.882;8.666;2023-03-15T05:44:27;99982.41;;;4.14;69.01
12963;BME280;6546;49.882;8.666;2023-03-15T05:46:53;99981.38;;;4.16;69.43
12963;BME280;6546;49.882;8.666;2023-03-15T05:49:20;99979.25;;;4.21;68.71
12963;BME280;6546;49.882;8.666;2023-03-15T05:51:47;99990.56;;;4.19;69.14
12963;BME280;6546;49.882;8.666;2023-03-15T05:54:15;99987.88;;;4.20;68.97
12963;BME280;6546;49.882;8.666;2023-03-15T05:56:41;99994.28;;;4.26;69.04
12963;BME280;6546;49.882;8.666;2023-03-15T05:59:08;99996.84;;;4.26;69.12
12963;BME280;6546;49.882;8.666;2023-03-15T06:01:34;100007.34;;;4.23;69.13
12963;BME280;6546;49.882;8.666;2023-03-15T06:04:01;100006.94;;;4.28;68.79
12963;BME280;6546;49.882;8.666;2023-03-15T06:06:28;99999.66;;;4.23;69.56
12963;BME280;6546;49.882;8.666;2023-03-15T06:08:54;100014.88;;;4.24;69.50
12963;BME280;6546;49.882;8.666;2023-03-15T06:11:22;100017.19;;;4.28;68.73
12963;BME280;6546;49.882;8.666;2023-03-15T06:13:49;100022.31;;;4.28;69.14
12963;BME280;6546;49.882;8.666;2023-03-15T06:16:15;100031.41;;;4.32;69.19
12963;BME280;6546;49.882;8.666;2023-03-15T06:18:42;100026.28;;;4.32;68.53
12963;BME280;6546;49.882;8.666;2023-03-15T06:21:08;100029.25;;;4.37;69.04
12963;BME280;6546;49.882;8.666;2023-03-15T06:23:35;100034.63;;;4.34;69.50
12963;BME280;6546;49.882;8.666;2023-03-15T06:26:01;100041.75;;;4.30;70.19
12963;BME280;6546;49.882;8.666;2023-03-15T06:28:29;100032.00;;;4.24;69.23
12963;BME280;6546;49.882;8.666;2023-03-15T06:30:56;100036.28;;;4.35;69.50
12963;BME280;6546;49.882;8.666;2023-03-15T06:33:22;100035.34;;;4.36;69.97
12963;BME280;6546;49.882;8.666;2023-03-15T06:35:51;100042.06;;;4.37;70.05
12963;BME280;6546;49.882;8.666;2023-03-15T06:38:18;100048.16;;;4.36;69.90
12963;BME280;6546;49.882;8.666;2023-03-15T06:40:45;100059.34;;;4.35;69.71
12963;BME280;6546;49.882;8.666;2023-03-15T06:43:11;100060.75;;;4.28;70.10
12963;BME280;6546;49.882;8.666;2023-03-15T06:45:44;100054.38;;;4.22;70.97
12963;BME280;6546;49.882;8.666;2023-03-15T06:48:11;100061.69;;;4.27;71.43
12963;BME280;6546;49.882;8.666;2023-03-15T06:50:38;100067.75;;;4.26;71.94
12963;BME280;6546;49.882;8.666;2023-03-15T06:53:04;100069.06;;;4.20;72.21
12963;BME280;6546;49.882;8.666;2023-03-15T06:55:31;100065.56;;;4.21;71.49
12963;BME280;6546;49.882;8.666;2023-03-15T06:57:58;100073.47;;;4.18;71.51
12963;BME280;6546;49.882;8.666;2023-03-15T07:00:25;100065.03;;;4.06;72.47
12963;BME280;6546;49.882;8.666;2023-03-15T07:02:52;100075.03;;;4.09;72.50
12963;BME280;6546;49.882;8.666;2023-03-15T07:05:19;100079.78;;;4.14;72.56
12963;BME280;6546;49.882;8.666;2023-03-15T07:07:46;100075.13;;;4.19;72.33
12963;BME280;6546;49.882;8.666;2023-03-15T07:10:12;100074.88;;;4.22;71.73
12963;BME280;6546;49.882;8.666;2023-03-15T07:12:39;100075.69;;;4.22;71.46
12963;BME280;6546;49.882;8.666;2023-03-15T07:15:06;100077.78;;;4.17;72.15
12963;BME280;6546;49.882;8.666;2023-03-15T07:17:33;100075.44;;;4.26;71.93
12963;BME280;6546;49.882;8.666;2023-03-15T07:20:01;100078.44;;;4.31;71.75
12963;BME280;6546;49.882;8.666;2023-03-15T07:22:30;100080.66;;;4.35;71.85
12963;BME280;6546;49.882;8.666;2023-03-15T07:24:56;100087.50;;;4.46;71.08
12963;BME280;6546;49.882;8.666;2023-03-15T07:27:23;100094.38;;;4.45;72.21
12963;BME280;6546;49.882;8.666;2023-03-15T07:29:50;100095.72;;;4.49;72.41
12963;BME280;6546;49.882;8.666;2023-03-15T07:32:16;100096.78;;;4.47;71.46
12963;BME280;6546;49.882;8.666;2023-03-15T07:34:43;100100.00;;;4.39;72.77
12963;BME280;6546;49.882;8.666;2023-03-15T07:37:11;100116.63;;;4.45;72.27
12963;BME280;6546;49.882;8.666;2023-03-15T07:39:38;100105.19;;;4.49;72.71
12963;BME280;6546;49.882;8.666;2023-03-15T07:42:05;100107.63;;;4.50;73.01
12963;BME280;6546;49.882;8.666;2023-03-15T07:44:32;100117.72;;;4.63;72.35
12963;BME280;6546;49.882;8.666;2023-03-15T07:46:59;100115.09;;;4.74;70.82
12963;BME280;6546;49.882;8.666;2023-03-15T07:49:25;100108.28;;;4.63;71.11
12963;BME280;6546;49.882;8.666;2023-03-15T07:51:52;100125.03;;;4.67;72.00
12963;BME280;6546;49.882;8.666;2023-03-15T07:54:20;100122.09;;;4.72;71.51
12963;BME280;6546;49.882;8.666;2023-03-15T07:56:47;100111.84;;;4.72;71.84
12963;BME280;6546;49.882;8.666;2023-03-15T07:59:13;100118.59;;;4.73;71.57
12963;BME280;6546;49.882;8.666;2023-03-15T08:01:40;100139.94;;;4.73;72.35
12963;BME280;6546;49.882;8.666;2023-03-15T08:04:06;100134.19;;;4.81;71.30
12963;BME280;6546;49.882;8.666;2023-03-15T08:06:33;100135.94;;;4.81;71.49
12963;BME280;6546;49.882;8.666;2023-03-15T08:09:00;100137.94;;;4.77;71.98
12963;BME280;6546;49.882;8.666;2023-03-15T08:11:31;100138.63;;;4.79;72.99
12963;BME280;6546;49.882;8.666;2023-03-15T08:13:57;100139.75;;;4.86;72.71
12963;BME280;6546;49.882;8.666;2023-03-15T08:16:24;100132.22;;;4.85;72.03
12963;BME280;6546;49.882;8.666;2023-03-15T08:18:51;100146.72;;;4.95;72.37
12963;BME280;6546;49.882;8.666;2023-03-15T08:21:17;100150.09;;;4.96;71.61
12963;BME280;6546;49.882;8.666;2023-03-15T08:23:44;100146.47;;;4.98;71.67
12963;BME280;6546;49.882;8.666;2023-03-15T08:26:10;100158.47;;;4.98;71.25
12963;BME280;6546;49.882;8.666;2023-03-15T08:28:38;100160.91;;;4.99;71.84
12963;BME280;6546;49.882;8.666;2023-03-15T08:31:06;100168.72;;;4.98;71.95
12963;BME280;6546;49.882;8.666;2023-03-15T08:33:33;100170.97;;;4.91;71.80
12963;BME280;6546;49.882;8.666;2023-03-15T08:35:59;100161.66;;;4.90;71.18
12963;BME280;6546;49.882;8.666;2023-03-15T08:38:26;100172.09;;;4.78;71.61
12963;BME280;6546;49.882;8.666;2023-03-15T08:40:55;100175.25;;;4.70;72.48
12963;BME280;6546;49.882;8.666;2023-03-15T08:43:21;100173.63;;;4.69;73.13
12963;BME280;6546;49.882;8.666;2023-03-15T08:45:50;100178.25;;;4.75;73.17
12963;BME280;6546;49.882;8.666;2023-03-15T08:48:17;100179.09;;;4.75;71.79
12963;BME280;6546;49.882;8.666;2023-03-15T08:50:43;100185.03;;;4.76;72.08
12963;BME280;6546;49.882;8.666;2023-03-15T08:53:10;100189.00;;;4.69;72.54
12963;BME280;6546;49.882;8.666;2023-03-15T08:55:37;100196.03;;;4.67;73.34
12963;BME280;6546;49.882;8.666;2023-03-15T08:58:03;100197.66;;;4.68;73.22
12963;BME280;6546;49.882;8.666;2023-03-15T09:00:30;100192.16;;;4.72;73.37
12963;BME280;6546;49.882;8.666;2023-03-15T09:02:58;100203.44;;;4.81;73.00
12963;BME280;6546;49.882;8.666;2023-03-15T09:05:25;100200.19;;;4.79;73.16
12963;BME280;6546;49.882;8.666;2023-03-15T09:07:52;100204.47;;;4.78;73.56
12963;BME280;6546;49.882;8.666;2023-03-15T09:10:19;100211.59;;;4.86;73.08
12963;BME280;6546;49.882;8.666;2023-03-15T09:12:48;100203.44;;;4.81;72.89
12963;BME280;6546;49.882;8.666;2023-03-15T09:15:16;100210.31;;;4.81;73.14
12963;BME280;6546;49.882;8.666;2023-03-15T09:17:43;100217.19;;;4.80;73.56
12963;BME280;6546;49.882;8.666;2023-03-15T09:20:12;100218.09;;;4.90;73.72
12963;BME280;6546;49.882;8.666;2023-03-15T09:22:49;100220.50;;;5.03;73.69
12963;BME280;6546;49.882;8.666;2023-03-15T09:25:16;100224.47;;;5.07;73.27
12963;BME280;6546;49.882;8.666;2023-03-15T09:27:42;100218.50;;;5.06;73.17
12963;BME280;6546;49.882;8.666;2023-03-15T09:30:10;100220.94;;;5.08;73.28
12963;BME280;6546;49.882;8.666;2023-03-15T09:32:37;100222.47;;;5.10;73.63
12963;BME280;6546;49.882;8.666;2023-03-15T09:35:06;100219.50;;;5.15;73.51
12963;BME280;6546;49.882;8.666;2023-03-15T09:37:34;100222.78;;;5.17;73.25
12963;BME280;6546;49.882;8.666;2023-03-15T09:40:01;100236.97;;;5.21;73.41
12963;BME280;6546;49.882;8.666;2023-03-15T09:42:35;100233.84;;;5.17;73.22
12963;BME280;6546;49.882;8.666;2023-03-15T09:45:14;100238.41;;;5.14;72.78
12963;BME280;6546;49.882;8.666;2023-03-15T09:47:50;100244.84;;;5.08;73.42
12963;BME280;6546;49.882;8.666;2023-03-15T09:50:26;100249.06;;;5.09;73.02
12963;BME280;6546;49.882;8.666;2023-03-15T09:52:58;100253.28;;;4.99;73.68
12963;BME280;6546;49.882;8.666;2023-03-15T09:55:26;100251.88;;;4.95;73.84
12963;BME280;6546;49.882;8.666;2023-03-15T09:57:56;100260.75;;;4.91;74.63
12963;BME280;6546;49.882;8.666;2023-03-15T10:00:26;100249.81;;;4.89;74.09
12963;BME280;6546;49.882;8.666;2023-03-15T10:02:58;100261.50;;;4.82;74.30
12963;BME280;6546;49.882;8.666;2023-03-15T10:05:34;100264.19;;;4.81;75.36
12963;BME280;6546;49.882;8.666;2023-03-15T10:08:08;100258.91;;;4.93;75.26
12963;BME280;6546;49.882;8.666;2023-03-15T10:10:39;100252.03;;;4.94;74.83
12963;BME280;6546;49.882;8.666;2023-03-15T10:13:21;100251.22;;;4.93;75.25
12963;BME280;6546;49.882;8.666;2023-03-15T10:16:00;100254.91;;;5.00;74.95
12963;BME280;6546;49.882;8.666;2023-03-15T10:18:48;100260.00;;;5.11;75.30
12963;BME280;6546;49.882;8.666;2023-03-15T10:21:31;100252.13;;;5.24;75.12
12963;BME280;6546;49.882;8.666;2023-03-15T10:24:05;100258.97;;;5.35;75.01
12963;BME280;6546;49.882;8.666;2023-03-15T10:26:38;100263.44;;;5.33;74.56
12963;BME280;6546;49.882;8.666;2023-03-15T10:29:12;100266.88;;;5.43;74.99
12963;BME280;6546;49.882;8.666;2023-03-15T10:31:43;100261.50;;;5.46;74.61
12963;BME280;6546;49.882;8.666;2023-03-15T10:34:12;100264.75;;;5.48;74.70
12963;BME280;6546;49.882;8.666;2023-03-15T10:36:43;100266.94;;;5.52;74.64
12963;BME280;6546;49.882;8.666;2023-03-15T10:39:12;100262.34;;;5.56;74.96
12963;BME280;6546;49.882;8.666;2023-03-15T10:41:41;100262.13;;;5.59;75.05
12963;BME280;6546;49.882;8.666;2023-03-15T10:44:12;100257.53;;;5.62;74.78
12963;BME280;6546;49.882;8.666;2023-03-15T10:46:39;100253.47;;;5.60;75.11
12963;BME280;6546;49.882;8.666;2023-03-15T10:49:10;100252.97;;;5.66;75.38
12963;BME280;6546;49.882;8.666;2023-03-15T10:51:39;100255.56;;;5.75;74.21
12963;BME280;6546;49.882;8.666;2023-03-15T10:54:13;100249.97;;;5.81;74.41
12963;BME280;6546;49.882;8.666;2023-03-15T10:56:45;100255.03;;;5.93;74.91
12963;BME280;6546;49.882;8.666;2023-03-15T10:59:16;100256.97;;;6.00;74.39
12963;BME280;6546;49.882;8.666;2023-03-15T11:01:45;100245.06;;;5.99;74.63
12963;BME280;6546;49.882;8.666;2023-03-15T11:04:16;100255.34;;;5.99;74.38
12963;BME280;6546;49.882;8.666;2023-03-15T11:06:45;100256.28;;;5.98;74.57
12963;BME280;6546;49.882;8.666;2023-03-15T11:09:15;100259.09;;;5.95;74.56
12963;BME280;6546;49.882;8.666;2023-03-15T11:11:54;100256.41;;;5.97;74.40
12963;BME280;6546;49.882;8.666;2023-03-15T11:14:22;100253.59;;;6.00;74.17
12963;BME280;6546;49.882;8.666;2023-03-15T11:16:50;100255.13;;;6.12;73.39
12963;BME280;6546;49.882;8.666;2023-03-15T11:19:19;100267.09;;;6.22;73.12
12963;BME280;6546;49.882;8.666;2023-03-15T11:21:48;100261.41;;;6.28;72.40
12963;BME280;6546;49.882;8.666;2023-03-15T11:24:23;100247.59;;;6.20;72.75
12963;BME280;6546;49.882;8.666;2023-03-15T11:26:51;100266.03;;;6.34;72.63
12963;BME280;6546;49.882;8.666;2023-03-15T11:29:22;100268.75;;;6.33;73.17
12963;BME280;6546;49.882;8.666;2023-03-15T11:31:50;100266.03;;;6.34;72.54
12963;BME280;6546;49.882;8.666;2023-03-15T11:34:25;100260.91;;;6.34;72.91
12963;BME280;6546;49.882;8.666;2023-03-15T11:36:56;100263.63;;;6.33;72.47
12963;BME280;6546;49.882;8.666;2023-03-15T11:39:34;100266.72;;;6.37;72.30
12963;BME280;6546;49.882;8.666;2023-03-15T11:42:05;100266.06;;;6.44;72.05
12963;BME280;6546;49.882;8.666;2023-03-15T11:44:38;100268.25;;;6.49;71.14
12963;BME280;6546;49.882;8.666;2023-03-15T11:47:10;100273.16;;;6.52;71.30
12963;BME280;6546;49.882;8.666;2023-03-15T11:49:43;100274.22;;;6.49;71.43
12963;BME280;6546;49.882;8.666;2023-03-15T11:52:14;100276.34;;;6.44;72.14
12963;BME280;6546;49.882;8.666;2023-03-15T11:54:43;100282.06;;;6.48;71.47
12963;BME280;6546;49.882;8.666;2023-03-15T11:57:37;100290.31;;;6.42;71.02
12963;BME280;6546;49.882;8.666;2023-03-15T12:03:28;100292.66;;;6.24;72.30
12963;BME280;6546;49.882;8.666;2023-03-15T12:06:00;100291.19;;;6.31;72.58
12963;BME280;6546;49.882;8.666;2023-03-15T12:08:41;100291.41;;;6.49;72.52
12963;BME280;6546;49.882;8.666;2023-03-15T12:11:11;100289.16;;;6.65;72.32
12963;BME280;6546;49.882;8.666;2023-03-15T12:13:50;100292.84;;;6.72;71.77
12963;BME280;6546;49.882;8.666;2023-03-15T12:16:20;100287.28;;;6.76;71.75
12963;BME280;6546;49.882;8.666;2023-03-15T12:18:47;100287.84;;;6.80;70.65
12963;BME280;6546;49.882;8.666;2023-03-15T12:21:18;100292.84;;;6.81;71.29
12963;BME280;6546;49.882;8.666;2023-03-15T12:23:55;100296.50;;;6.88;70.08
12963;BME280;6546;49.882;8.666;2023-03-15T12:26:30;100298.28;;;6.88;69.93
12963;BME280;6546;49.882;8.666;2023-03-15T12:29:04;100303.00;;;6.83;68.18
12963;BME280;6546;49.882;8.666;2023-03-15T12:31:45;100314.34;;;6.71;68.35
12963;BME280;6546;49.882;8.666;2023-03-15T12:34:23;100303.78;;;6.64;68.45
12963;BME280;6546;49.882;8.666;2023-03-15T12:36:52;100300.25;;;6.56;68.57
12963;BME280;6546;49.882;8.666;2023-03-15T12:39:38;100314.31;;;6.52;69.62
12963;BME280;6546;49.882;8.666;2023-03-15T12:42:11;100316.69;;;6.44;70.26
12963;BME280;6546;49.882;8.666;2023-03-15T12:44:40;100311.81;;;6.41;70.60
12963;BME280;6546;49.882;8.666;2023-03-15T12:47:08;100313.81;;;6.37;71.60
12963;BME280;6546;49.882;8.666;2023-03-15T12:49:40;100320.47;;;6.40;71.12
12963;BME280;6546;49.882;8.666;2023-03-15T12:52:37;100312.78;;;6.40;71.27
12963;BME280;6546;49.882;8.666;2023-03-15T12:55:12;100311.81;;;6.41;71.59
12963;BME280;6546;49.882;8.666;2023-03-15T12:57:46;100309.41;;;6.49;71.83
12963;BME280;6546;49.882;8.666;2023-03-15T13:00:16;100296.41;;;6.50;71.56
12963;BME280;6546;49.882;8.666;2023-03-15T13:02:47;100308.63;;;6.58;71.49
12963;BME280;6546;49.882;8.666;2023-03-15T13:05:21;100312.13;;;6.57;71.53
12963;BME280;6546;49.882;8.666;2023-03-15T13:08:04;100304.00;;;6.52;71.10
12963;BME280;6546;49.882;8.666;2023-03-15T13:10:36;100313.47;;;6.51;71.02
12963;BME280;6546;49.882;8.666;2023-03-15T13:13:15;100309.16;;;6.52;71.06
12963;BME280;6546;49.882;8.666;2023-03-15T13:15:48;100303.75;;;6.55;70.94
12963;BME280;6546;49.882;8.666;2023-03-15T13:18:22;100300.91;;;6.58;70.54
12963;BME280;6546;49.882;8.666;2023-03-15T13:21:03;100304.59;;;6.65;71.02
12963;BME280;6546;49.882;8.666;2023-03-15T13:23:32;100299.75;;;6.71;69.55
12963;BME280;6546;49.882;8.666;2023-03-15T13:26:16;100296.19;;;6.72;69.97
12963;BME280;6546;49.882;8.666;2023-03-15T13:28:54;100296.19;;;6.72;69.65